Time;durP1;ratioP1;P1;durP2;ratioP2;P2;SDS_P1;SDS_P2;PMS_P1;PMS_P2;Temp;Humidity;BMP_temperature;BMP_pressure;BME280_temperature;BME280_humidity;BME280_pressure;Samples;Min_cycle;Max_cycle;Signal;HPM_P1;HPM_P2
2022/01/07 00:00:18;;;;;;;;;15.00;12.75;;;;;5.73;61.46;101431.03;5047136;28;45282;-45
2022/01/07 00:02:49;;;;;;;;;16.50;14.50;;;;;5.69;61.42;101424.88;5040618;28;45309;-46
2022/01/07 00:05:15;;;;;;;;;22.50;15.75;;;;;5.65;61.62;101413.50;5048053;28;45334;-45
2022/01/07 00:07:41;;;;;;;;;20.00;17.25;;;;;5.62;61.58;101431.72;5036227;28;45378;-45
2022/01/07 00:10:09;;;;;;;;;19.00;15.00;;;;;5.63;61.58;101403.91;5043295;28;46207;-45
2022/01/07 00:12:34;;;;;;;;;11.00;9.75;;;;;5.64;61.50;101403.06;5038910;28;45773;-48
2022/01/07 00:15:00;;;;;;;;;13.75;11.00;;;;;5.61;61.66;101398.69;5040450;28;45308;-46
2022/01/07 00:17:26;;;;;;;;;20.50;14.75;;;;;5.53;61.94;101401.16;5040534;28;45198;-50
2022/01/07 00:19:51;;;;;;;;;16.00;14.00;;;;;5.53;62.08;101397.66;5039948;28;46644;-48
2022/01/07 00:22:16;;;;;;;;;12.50;11.25;;;;;5.47;61.96;101387.13;5040520;28;45274;-45
2022/01/07 00:24:42;;;;;;;;;13.50;12.75;;;;;5.47;62.04;101387.13;5040393;28;45778;-46
2022/01/07 00:27:07;;;;;;;;;14.25;12.00;;;;;5.42;62.18;101388.78;5040383;28;45174;-45
2022/01/07 00:29:33;;;;;;;;;18.50;16.25;;;;;5.39;62.14;101383.53;5039861;28;45570;-45
2022/01/07 00:31:58;;;;;;;;;20.75;13.00;;;;;5.38;62.13;101380.00;5048160;28;45307;-45
2022/01/07 00:34:24;;;;;;;;;17.75;15.00;;;;;5.32;62.21;101374.69;5060180;28;45154;-46
2022/01/07 00:36:49;;;;;;;;;18.75;13.50;;;;;5.20;62.56;101347.56;5042235;28;45246;-45
2022/01/07 00:39:14;;;;;;;;;17.50;16.25;;;;;5.21;62.64;101351.94;5060179;28;46200;-46
2022/01/07 00:41:40;;;;;;;;;12.25;8.50;;;;;5.19;62.65;101337.13;5059887;28;45497;-44
2022/01/07 00:44:05;;;;;;;;;14.75;14.75;;;;;5.11;62.52;101329.19;5060206;28;45627;-46
2022/01/07 00:46:31;;;;;;;;;16.50;12.25;;;;;5.05;62.43;101342.09;5060210;28;45375;-46
2022/01/07 00:48:56;;;;;;;;;14.00;13.00;;;;;4.98;62.86;101328.09;5041900;28;46240;-48
2022/01/07 00:51:21;;;;;;;;;12.00;9.75;;;;;4.94;62.85;101318.44;5059857;28;45323;-47
2022/01/07 00:53:47;;;;;;;;;13.00;12.50;;;;;4.93;62.91;101334.94;5060149;28;45315;-46
2022/01/07 00:56:13;;;;;;;;;14.75;11.00;;;;;4.88;63.24;101314.00;5042065;28;45507;-45
2022/01/07 00:58:38;;;;;;;;;11.00;9.00;;;;;4.89;63.17;101325.28;5059913;28;45938;-46
2022/01/07 01:01:04;;;;;;;;;11.50;10.75;;;;;4.81;63.26;101319.09;5059916;28;45295;-45
2022/01/07 01:03:30;;;;;;;;;14.00;10.25;;;;;4.76;63.35;101316.38;5041854;28;45309;-46
2022/01/07 01:05:58;;;;;;;;;15.00;10.00;;;;;4.71;63.48;101321.50;5059803;28;45521;-46
2022/01/07 01:08:26;;;;;;;;;7.00;7.00;;;;;4.68;63.47;101312.78;5059747;28;45501;-45
2022/01/07 01:10:52;;;;;;;;;13.75;8.75;;;;;4.61;63.60;101322.16;5059553;28;45245;-46
2022/01/07 01:13:18;;;;;;;;;8.25;8.25;;;;;4.62;63.66;101330.88;5059910;28;45359;-46
2022/01/07 01:15:44;;;;;;;;;12.25;8.50;;;;;4.59;63.90;101317.78;5059776;28;45324;-44
2022/01/07 01:18:09;;;;;;;;;9.00;9.00;;;;;4.54;63.87;101336.81;5041609;28;47973;-48
2022/01/07 01:20:35;;;;;;;;;14.25;12.25;;;;;4.54;63.74;101315.06;5059624;28;45316;-46
2022/01/07 01:23:01;;;;;;;;;13.50;8.00;;;;;4.49;63.92;101309.81;5059817;28;45363;-48
2022/01/07 01:25:26;;;;;;;;;11.00;7.75;;;;;4.46;63.86;101314.06;5041544;28;45440;-45
2022/01/07 01:27:52;;;;;;;;;14.75;12.25;;;;;4.41;64.15;101293.13;5059372;28;46143;-47
2022/01/07 01:30:18;;;;;;;;;8.75;7.75;;;;;4.39;64.03;101298.31;5051656;28;45492;-48
2022/01/07 01:32:45;;;;;;;;;12.50;11.00;;;;;4.38;64.35;101304.38;5053636;28;45271;-47
2022/01/07 01:35:12;;;;;;;;;10.75;10.75;;;;;4.37;63.97;101305.22;5041322;28;45423;-46
2022/01/07 01:37:37;;;;;;;;;11.50;11.00;;;;;4.38;64.29;101291.34;5059342;28;45407;-47
2022/01/07 01:40:05;;;;;;;;;11.25;10.25;;;;;4.36;64.43;101295.63;5059421;28;45434;-48
2022/01/07 01:42:31;;;;;;;;;8.25;7.00;;;;;4.35;64.60;101298.22;5059701;28;45320;-49
2022/01/07 01:44:56;;;;;;;;;15.00;10.75;;;;;4.36;64.57;101299.97;5059599;28;45537;-47
2022/01/07 01:47:22;;;;;;;;;14.75;13.00;;;;;4.37;64.28;101306.94;5040131;28;46635;-48
2022/01/07 01:49:47;;;;;;;;;12.50;10.50;;;;;4.38;64.21;101314.78;5039085;28;45259;-49
2022/01/07 01:52:12;;;;;;;;;11.25;9.25;;;;;4.35;64.58;101306.91;5039477;28;45262;-46
2022/01/07 01:54:38;;;;;;;;;13.00;11.50;;;;;4.39;64.67;101320.88;5041486;28;45208;-47
2022/01/07 01:57:04;;;;;;;;;11.75;10.75;;;;;4.39;64.28;101319.13;5042561;28;45264;-48
2022/01/07 01:59:30;;;;;;;;;10.50;10.50;;;;;4.39;64.48;101313.94;5042633;28;45221;-48
2022/01/07 02:01:56;;;;;;;;;10.25;8.25;;;;;4.40;64.59;101309.59;5042706;28;45444;-48
2022/01/07 02:04:22;;;;;;;;;13.50;9.25;;;;;4.37;64.45;101302.59;5024370;28;45472;-46
2022/01/07 02:06:48;;;;;;;;;9.50;7.75;;;;;4.42;64.31;101307.06;5042269;28;45431;-46
2022/01/07 02:09:14;;;;;;;;;10.75;9.00;;;;;4.43;64.77;101303.56;5024471;28;45345;-46
2022/01/07 02:11:40;;;;;;;;;12.50;11.00;;;;;4.39;64.90;101294.84;5042569;28;45334;-48
2022/01/07 02:14:06;;;;;;;;;10.75;10.50;;;;;4.42;64.82;101300.09;5024705;28;45744;-48
2022/01/07 02:16:31;;;;;;;;;12.50;11.25;;;;;4.45;65.00;101283.66;5042425;28;46273;-47
2022/01/07 02:18:57;;;;;;;;;9.00;8.75;;;;;4.45;64.71;101286.28;5042353;28;45273;-46
2022/01/07 02:21:22;;;;;;;;;7.75;7.50;;;;;4.47;64.75;101282.84;5042312;28;45230;-47
2022/01/07 02:23:48;;;;;;;;;10.00;9.25;;;;;4.49;64.93;101290.69;5042190;28;45310;-48
2022/01/07 02:26:14;;;;;;;;;6.50;6.00;;;;;4.46;64.76;101288.91;5042308;28;46051;-47
2022/01/07 02:28:41;;;;;;;;;12.25;7.50;;;;;4.50;64.82;101285.53;5042055;28;45324;-47
2022/01/07 02:31:07;;;;;;;;;13.25;9.75;;;;;4.53;64.77;101288.19;5042838;28;46477;-47
2022/01/07 02:33:32;;;;;;;;;8.00;8.00;;;;;4.53;65.06;101288.19;5062327;28;45492;-51
2022/01/07 02:35:57;;;;;;;;;13.50;8.25;;;;;4.58;64.75;101270.06;5061789;28;46129;-48
2022/01/07 02:38:23;;;;;;;;;11.25;8.25;;;;;4.57;64.60;101260.50;5027545;28;45262;-46
2022/01/07 02:40:48;;;;;;;;;10.75;10.75;;;;;4.60;65.34;101265.72;5062195;28;45440;-50
2022/01/07 02:43:14;;;;;;;;;9.00;8.00;;;;;4.61;65.24;101266.63;5044145;28;45447;-50
2022/01/07 02:45:40;;;;;;;;;8.25;7.25;;;;;4.64;65.11;101264.06;5061954;28;46152;-47
2022/01/07 02:48:05;;;;;;;;;9.50;7.25;;;;;4.67;65.01;101259.81;5055088;28;45442;-46
2022/01/07 02:50:36;;;;;;;;;10.25;10.25;;;;;4.68;65.00;101261.56;5041629;28;45230;-46
2022/01/07 02:53:04;;;;;;;;;12.50;8.00;;;;;4.71;65.33;101252.94;5041892;28;45493;-48
2022/01/07 02:55:29;;;;;;;;;11.50;9.00;;;;;4.70;65.31;101248.56;5041669;28;45340;-47
2022/01/07 02:57:56;;;;;;;;;11.50;10.00;;;;;4.61;65.41;101240.59;5041729;28;45242;-51
2022/01/07 03:00:22;;;;;;;;;7.00;6.00;;;;;4.68;65.39;101251.16;5041910;28;45245;-47
2022/01/07 03:02:49;;;;;;;;;9.50;7.75;;;;;4.72;65.37;101250.34;5041727;28;45234;-48
2022/01/07 03:05:16;;;;;;;;;9.00;8.00;;;;;4.77;65.20;101246.94;5040841;28;45424;-47
2022/01/07 03:07:43;;;;;;;;;9.75;8.50;;;;;4.77;65.51;101244.34;5041526;28;45348;-46
2022/01/07 03:10:09;;;;;;;;;8.75;7.50;;;;;4.75;65.49;101235.63;5041302;28;45319;-48
2022/01/07 03:12:36;;;;;;;;;8.25;7.75;;;;;4.77;65.54;101240.03;5041442;28;45272;-51
2022/01/07 03:15:05;;;;;;;;;8.25;7.00;;;;;4.81;65.14;101241.81;5041208;28;46359;-50
2022/01/07 03:17:30;;;;;;;;;10.25;8.50;;;;;4.85;65.27;101247.97;5041284;28;45403;-50
2022/01/07 03:19:55;;;;;;;;;8.25;6.00;;;;;4.81;65.46;101244.44;5041095;28;46050;-47
2022/01/07 03:22:21;;;;;;;;;9.50;9.50;;;;;4.85;65.28;101248.81;5037533;28;45391;-48
2022/01/07 03:24:46;;;;;;;;;8.50;7.00;;;;;4.90;65.44;101242.84;5046026;28;46133;-46
2022/01/07 03:27:11;;;;;;;;;11.00;9.25;;;;;4.91;65.43;101255.88;5041250;28;45478;-50
2022/01/07 03:29:37;;;;;;;;;12.00;11.25;;;;;4.92;65.56;101247.22;5041310;28;45341;-51
2022/01/07 03:32:03;;;;;;;;;7.75;7.75;;;;;4.97;65.20;101247.28;5049689;28;45423;-47
2022/01/07 03:34:28;;;;;;;;;8.00;8.00;;;;;5.00;65.25;101231.72;5042900;28;46308;-51
2022/01/07 03:36:53;;;;;;;;;8.75;8.75;;;;;4.97;65.41;101236.88;5061463;28;45415;-48
2022/01/07 03:39:19;;;;;;;;;9.75;7.50;;;;;5.02;65.46;101232.63;5043027;28;45282;-47
2022/01/07 03:41:44;;;;;;;;;14.25;12.25;;;;;5.06;65.24;101234.44;5061241;28;45371;-50
2022/01/07 03:44:10;;;;;;;;;10.50;5.50;;;;;5.05;65.21;101236.13;5061207;28;45326;-48
2022/01/07 03:46:36;;;;;;;;;9.25;9.25;;;;;5.07;65.18;101233.59;5061046;28;45229;-51
2022/01/07 03:49:01;;;;;;;;;11.25;8.00;;;;;5.12;65.24;101241.44;5046617;28;45534;-49
2022/01/07 03:51:27;;;;;;;;;11.25;8.75;;;;;5.12;65.20;101239.75;5041021;28;45142;-48
2022/01/07 03:53:52;;;;;;;;;7.25;7.25;;;;;5.12;65.34;101225.81;5040688;28;45238;-47
2022/01/07 03:56:18;;;;;;;;;9.00;7.75;;;;;5.12;64.93;101226.72;5034778;28;45237;-49
2022/01/07 03:58:45;;;;;;;;;9.50;9.50;;;;;5.16;65.13;101214.63;5046722;28;45244;-48
2022/01/07 04:01:10;;;;;;;;;10.75;7.25;;;;;5.13;65.18;101214.56;5022739;28;45372;-50
2022/01/07 04:03:36;;;;;;;;;12.00;7.50;;;;;5.15;64.97;101231.09;5022498;28;48772;-48
2022/01/07 04:06:01;;;;;;;;;12.25;9.25;;;;;5.12;65.19;101211.09;5040471;28;45410;-47
2022/01/07 04:08:26;;;;;;;;;9.25;8.50;;;;;5.17;64.99;101211.13;5022914;28;45809;-48
2022/01/07 04:10:52;;;;;;;;;9.75;8.50;;;;;5.18;64.97;101198.16;5040461;28;45304;-47
2022/01/07 04:13:17;;;;;;;;;9.00;8.75;;;;;5.21;65.17;101211.22;5040434;28;45594;-48
2022/01/07 04:15:42;;;;;;;;;7.00;7.00;;;;;5.25;64.96;101201.72;5040712;28;45340;-51
2022/01/07 04:18:08;;;;;;;;;6.00;6.00;;;;;5.21;65.06;101229.47;5039978;28;45473;-48
2022/01/07 04:20:34;;;;;;;;;7.50;7.00;;;;;5.27;64.78;101205.22;5040285;28;45316;-49
2022/01/07 04:23:01;;;;;;;;;8.50;7.00;;;;;5.28;64.99;101207.00;5040269;28;45214;-47
2022/01/07 04:25:27;;;;;;;;;9.00;6.25;;;;;5.31;64.98;101198.34;5040382;28;45474;-48
2022/01/07 04:28:06;;;;;;;;;6.50;6.50;;;;;5.32;65.04;101198.34;5022490;28;45261;-47
2022/01/07 04:30:34;;;;;;;;;9.75;8.00;;;;;5.32;65.07;101192.25;5039946;28;45365;-46
2022/01/07 04:33:02;;;;;;;;;9.00;7.50;;;;;5.33;64.85;101192.28;5056441;28;46317;-47
2022/01/07 04:35:29;;;;;;;;;7.00;7.00;;;;;5.37;64.94;101195.78;5060121;28;45733;-47
2022/01/07 04:37:54;;;;;;;;;7.75;6.00;;;;;5.36;64.85;101183.66;5060319;28;45233;-51
2022/01/07 04:40:20;;;;;;;;;6.50;6.50;;;;;5.39;65.03;101188.03;5060212;28;45309;-52
2022/01/07 04:42:45;;;;;;;;;7.50;7.00;;;;;5.37;64.94;101190.59;5042121;28;46140;-47
2022/01/07 04:45:12;;;;;;;;;8.00;7.00;;;;;5.40;64.84;101185.44;5060410;28;45588;-50
2022/01/07 04:47:39;;;;;;;;;7.25;4.50;;;;;5.39;64.88;101182.81;5057088;28;45355;-51
2022/01/07 04:50:10;;;;;;;;;4.00;2.50;;;;;5.40;65.09;101188.03;5039730;28;45336;-49
2022/01/07 04:52:38;;;;;;;;;1.75;1.00;;;;;5.40;64.67;101180.22;5022023;28;47330;-51
2022/01/07 04:55:04;;;;;;;;;7.00;7.00;;;;;5.39;64.72;101186.28;5039866;28;45312;-52
2022/01/07 04:57:30;;;;;;;;;7.50;7.50;;;;;5.43;64.87;101195.88;5039865;28;45277;-49
2022/01/07 04:59:55;;;;;;;;;9.50;7.50;;;;;5.48;64.69;101203.78;5039854;28;45270;-48
2022/01/07 05:02:20;;;;;;;;;8.50;8.50;;;;;5.50;64.71;101196.88;5039749;28;45408;-47
2022/01/07 05:04:47;;;;;;;;;9.00;7.00;;;;;5.49;64.60;101195.97;5039624;28;45371;-51
2022/01/07 05:07:16;;;;;;;;;7.75;6.75;;;;;5.50;64.79;101189.91;5039746;28;45269;-50
2022/01/07 05:09:42;;;;;;;;;7.00;6.25;;;;;5.51;64.70;101183.84;5039359;28;45582;-48
2022/01/07 05:12:07;;;;;;;;;7.75;7.00;;;;;5.49;64.50;101179.47;5039476;28;46196;-48
2022/01/07 05:14:33;;;;;;;;;7.00;6.50;;;;;5.54;64.63;101181.28;5039888;28;45332;-51
2022/01/07 05:16:58;;;;;;;;;6.25;6.25;;;;;5.51;64.89;101173.41;5039813;28;45412;-50
2022/01/07 05:19:23;;;;;;;;;5.75;5.75;;;;;5.58;64.70;101171.75;5039696;28;45452;-46
2022/01/07 05:21:49;;;;;;;;;6.00;3.25;;;;;5.61;64.59;101166.59;5021469;28;47998;-47
2022/01/07 05:24:14;;;;;;;;;6.25;5.50;;;;;5.65;64.43;101173.59;5039770;28;45387;-49
2022/01/07 05:26:39;;;;;;;;;8.00;6.75;;;;;5.66;64.60;101180.56;5039573;28;45250;-48
2022/01/07 05:29:05;;;;;;;;;9.25;7.00;;;;;5.67;64.50;101184.03;5040881;28;45293;-49
2022/01/07 05:31:31;;;;;;;;;9.75;8.00;;;;;5.70;64.33;101184.09;5046966;28;45503;-52
2022/01/07 05:33:56;;;;;;;;;7.75;6.00;;;;;5.74;64.54;101185.03;5062951;28;45210;-50
2022/01/07 05:36:22;;;;;;;;;5.00;5.00;;;;;5.77;64.46;101196.34;5063234;28;45305;-50
2022/01/07 05:38:48;;;;;;;;;8.75;7.00;;;;;5.77;64.53;101188.53;5063084;28;45492;-50
2022/01/07 05:41:14;;;;;;;;;7.25;6.00;;;;;5.82;64.60;101191.19;5062858;28;46148;-50
2022/01/07 05:43:40;;;;;;;;;6.50;6.50;;;;;5.84;64.34;101198.19;5063068;28;45219;-48
2022/01/07 05:46:08;;;;;;;;;6.75;6.75;;;;;5.85;64.36;101184.28;5063090;28;45360;-50
2022/01/07 05:48:33;;;;;;;;;7.25;7.25;;;;;5.86;64.50;101175.59;5051782;28;46044;-51
2022/01/07 05:50:59;;;;;;;;;11.00;6.50;;;;;5.85;64.56;101173.84;5024254;28;47129;-49
2022/01/07 05:53:24;;;;;;;;;8.75;8.75;;;;;5.86;64.49;101183.44;5042742;28;45427;-50
2022/01/07 05:55:50;;;;;;;;;7.25;7.25;;;;;5.85;64.66;101171.25;5042661;28;45359;-50
2022/01/07 05:58:15;;;;;;;;;6.75;5.75;;;;;5.83;64.60;101170.34;5042617;28;45505;-52
2022/01/07 06:00:41;;;;;;;;;8.50;4.75;;;;;5.86;64.74;101185.16;5042505;28;47138;-48
2022/01/07 06:03:06;;;;;;;;;8.00;4.25;;;;;5.82;64.70;101173.84;5051584;28;45205;-49
2022/01/07 06:05:31;;;;;;;;;8.75;5.75;;;;;5.82;64.78;101173.84;5042348;28;45285;-49
2022/01/07 06:07:57;;;;;;;;;3.75;3.00;;;;;5.84;64.92;101171.25;5042649;28;45501;-47
2022/01/07 06:10:22;;;;;;;;;8.25;6.50;;;;;5.83;64.53;101165.13;5042230;28;45428;-51
2022/01/07 06:12:47;;;;;;;;;7.75;6.00;;;;;5.79;64.74;101176.38;5042511;28;45252;-51
2022/01/07 06:15:13;;;;;;;;;7.00;4.50;;;;;5.71;64.86;101157.19;5042567;28;45243;-48
2022/01/07 06:17:38;;;;;;;;;5.50;5.50;;;;;5.78;64.83;101168.53;5042394;28;45235;-47
2022/01/07 06:20:06;;;;;;;;;7.25;5.50;;;;;5.79;64.68;101178.13;5024235;28;46147;-52
2022/01/07 06:22:32;;;;;;;;;10.00;6.75;;;;;5.82;64.76;101176.44;5042268;28;45310;-50
2022/01/07 06:24:57;;;;;;;;;6.75;5.25;;;;;5.81;64.64;101181.63;5042228;28;45294;-50
2022/01/07 06:27:22;;;;;;;;;6.25;5.25;;;;;5.82;64.58;101179.06;5024323;28;45713;-48
2022/01/07 06:29:48;;;;;;;;;9.00;6.25;;;;;5.84;64.43;101182.53;5041862;28;45416;-53
2022/01/07 06:32:13;;;;;;;;;9.50;4.75;;;;;5.84;64.70;101176.44;5052190;28;45425;-53
2022/01/07 06:34:39;;;;;;;;;11.75;8.75;;;;;5.82;64.68;101183.38;5062195;28;45308;-52
2022/01/07 06:37:04;;;;;;;;;7.00;7.00;;;;;5.80;64.79;101179.88;5062379;28;45304;-52
2022/01/07 06:39:30;;;;;;;;;7.25;7.00;;;;;5.85;64.62;101188.66;5061331;28;46112;-52
2022/01/07 06:41:57;;;;;;;;;6.00;5.25;;;;;5.84;64.87;101186.88;5062205;28;45281;-50
2022/01/07 06:44:22;;;;;;;;;9.75;9.25;;;;;5.86;64.65;101179.94;5062122;28;45249;-53
2022/01/07 06:46:48;;;;;;;;;8.25;4.00;;;;;5.86;64.65;101177.31;5061892;28;45617;-49
2022/01/07 06:49:13;;;;;;;;;10.75;6.00;;;;;5.90;64.80;101178.25;5045229;28;46108;-53
2022/01/07 06:51:40;;;;;;;;;6.50;4.00;;;;;5.91;64.66;101174.78;5041836;28;45241;-53
2022/01/07 06:54:07;;;;;;;;;8.75;7.75;;;;;5.92;64.80;101184.38;5041807;28;45455;-50
2022/01/07 06:56:33;;;;;;;;;11.25;10.25;;;;;5.92;64.69;101190.44;5041865;28;45386;-52
2022/01/07 06:58:59;;;;;;;;;9.25;9.00;;;;;5.93;64.86;101180.91;5041408;28;46582;-52
2022/01/07 07:01:24;;;;;;;;;8.00;7.00;;;;;5.95;64.82;101189.59;5041643;28;45334;-51
2022/01/07 07:03:50;;;;;;;;;7.25;5.25;;;;;5.96;64.93;101176.59;5041506;28;45489;-48
2022/01/07 07:06:15;;;;;;;;;5.25;4.00;;;;;5.96;65.09;101171.38;5041649;28;45534;-51
2022/01/07 07:08:40;;;;;;;;;8.00;6.75;;;;;5.99;65.03;101170.56;5043957;28;46357;-48
2022/01/07 07:11:06;;;;;;;;;8.25;7.25;;;;;6.02;64.93;101178.44;5048976;28;45282;-48
2022/01/07 07:13:32;;;;;;;;;10.00;8.25;;;;;6.01;65.09;101177.56;5044230;28;45235;-51
2022/01/07 07:15:57;;;;;;;;;6.50;5.50;;;;;6.03;64.98;101182.78;5048802;28;45318;-51
2022/01/07 07:18:22;;;;;;;;;7.50;6.50;;;;;6.07;65.17;101183.72;5034952;28;45969;-49
2022/01/07 07:20:48;;;;;;;;;9.25;5.25;;;;;6.07;64.89;101189.78;5036138;28;45289;-52
2022/01/07 07:23:13;;;;;;;;;8.75;7.25;;;;;6.10;64.97;101188.94;5029685;28;45398;-52
2022/01/07 07:25:39;;;;;;;;;9.25;7.50;;;;;6.14;64.63;101206.41;5034744;28;45539;-50
2022/01/07 07:28:05;;;;;;;;;8.00;7.50;;;;;6.17;64.95;101203.81;5046472;28;46049;-51
2022/01/07 07:30:36;;;;;;;;;7.75;7.00;;;;;6.12;65.01;101188.09;5041439;28;45362;-48
2022/01/07 07:33:28;;;;;;;;;12.00;8.25;;;;;6.13;65.18;101194.22;5051656;28;45322;-51
2022/01/07 07:38:34;;;;;;;;;7.75;6.75;;;;;6.18;65.02;101198.63;5040796;28;45432;-51
2022/01/07 07:40:59;;;;;;;;;7.50;7.00;;;;;6.23;65.19;101189.97;5054679;28;45245;-50
2022/01/07 07:43:25;;;;;;;;;8.25;7.75;;;;;6.22;65.09;101193.44;5053012;28;45436;-52
2022/01/07 07:45:50;;;;;;;;;12.75;10.00;;;;;6.26;65.30;101188.25;5042444;28;45439;-50
2022/01/07 07:48:18;;;;;;;;;9.25;5.50;;;;;6.27;65.08;101194.38;5052630;28;46038;-53
2022/01/07 07:50:43;;;;;;;;;7.75;5.75;;;;;6.30;64.95;101199.59;5040212;28;45266;-53
2022/01/07 07:53:08;;;;;;;;;8.00;6.50;;;;;6.33;65.05;101202.25;5040166;28;45358;-52
2022/01/07 07:55:34;;;;;;;;;7.00;5.75;;;;;6.34;65.14;101201.41;5036401;28;45369;-51
2022/01/07 07:57:59;;;;;;;;;9.75;8.00;;;;;6.36;65.11;101209.25;5040823;28;46326;-52
2022/01/07 08:00:25;;;;;;;;;9.50;8.75;;;;;6.36;65.40;101210.13;5040744;28;45242;-52
2022/01/07 08:02:50;;;;;;;;;9.50;5.50;;;;;6.36;65.30;101215.34;5041026;28;45367;-50
2022/01/07 08:05:15;;;;;;;;;5.00;5.00;;;;;6.38;65.34;101216.25;5022465;28;45485;-54
2022/01/07 08:07:41;;;;;;;;;7.00;4.75;;;;;6.33;65.46;101226.63;5040924;28;45344;-52
2022/01/07 08:10:07;;;;;;;;;7.25;4.75;;;;;6.32;65.60;101230.09;5055362;28;45311;-53
2022/01/07 08:18:00;;;;;;;;;5.50;5.50;;;;;6.33;65.90;101230.97;5040538;28;45436;-50
2022/01/07 08:20:26;;;;;;;;;9.00;7.00;;;;;6.33;66.11;101223.16;5050923;28;45294;-52
2022/01/07 08:22:52;;;;;;;;;6.25;5.00;;;;;6.34;66.16;101231.00;5042749;28;45236;-51
2022/01/07 08:25:17;;;;;;;;;9.50;8.25;;;;;6.32;66.10;101222.25;5042558;28;45504;-49
2022/01/07 08:27:43;;;;;;;;;6.00;4.00;;;;;6.36;66.53;101223.16;5042388;28;48055;-49
2022/01/07 08:30:16;;;;;;;;;10.00;8.00;;;;;6.37;66.18;101222.31;5060118;28;45403;-52
2022/01/07 08:35:27;;;;;;;;;6.75;6.75;;;;;6.43;66.06;101226.75;5060191;28;45265;-49
2022/01/07 08:37:53;;;;;;;;;7.00;6.50;;;;;6.42;66.08;101223.25;5060278;28;46194;-53
2022/01/07 08:40:18;;;;;;;;;9.50;7.00;;;;;6.42;66.27;101223.25;5041820;28;45391;-52
2022/01/07 08:42:44;;;;;;;;;7.00;7.00;;;;;6.39;66.29;101220.59;5060558;28;45255;-52
2022/01/07 08:45:09;;;;;;;;;15.00;14.50;;;;;6.40;66.34;101216.25;5060328;28;45146;-52
2022/01/07 08:47:35;;;;;;;;;7.50;5.50;;;;;6.44;66.49;101215.41;5060198;28;46033;-50
2022/01/07 08:50:00;;;;;;;;;8.00;6.75;;;;;6.46;66.21;101211.09;5038388;28;45373;-49
2022/01/07 08:52:26;;;;;;;;;8.00;7.25;;;;;6.49;66.38;101217.22;5040292;28;45286;-51
2022/01/07 08:54:51;;;;;;;;;8.00;8.00;;;;;6.52;66.27;101225.97;5039893;28;45474;-49
2022/01/07 08:57:21;;;;;;;;;8.50;8.50;;;;;6.54;66.02;101221.63;5039988;28;45902;-52
2022/01/07 08:59:48;;;;;;;;;7.25;5.00;;;;;6.58;66.38;101220.78;5021891;28;45323;-52
2022/01/07 09:02:14;;;;;;;;;6.00;6.00;;;;;6.59;66.29;101217.31;5039765;28;45344;-52
2022/01/07 09:04:39;;;;;;;;;8.50;7.25;;;;;6.59;66.44;101217.31;5021659;28;45262;-51
2022/01/07 09:07:05;;;;;;;;;8.75;8.75;;;;;6.61;66.56;101202.53;5039579;28;46128;-54
2022/01/07 09:09:30;;;;;;;;;8.00;7.75;;;;;6.58;66.77;101166.84;5050890;28;45174;-52
2022/01/07 09:11:55;;;;;;;;;4.75;4.50;;;;;6.59;67.02;101158.13;5059964;28;45310;-52
2022/01/07 09:14:21;;;;;;;;;7.50;7.50;;;;;6.62;66.59;101167.75;5060034;28;45303;-51
2022/01/07 09:16:46;;;;;;;;;8.25;7.25;;;;;6.59;66.86;101170.31;5041595;28;47039;-52
2022/01/07 09:19:11;;;;;;;;;7.25;6.25;;;;;6.62;66.81;101176.44;5059720;28;45232;-52
2022/01/07 09:21:37;;;;;;;;;10.75;8.75;;;;;6.65;66.65;101173.88;5038296;28;45364;-51
2022/01/07 09:24:02;;;;;;;;;8.25;7.75;;;;;6.65;66.99;101166.03;5005035;28;45401;-47
2022/01/07 09:26:28;;;;;;;;;8.25;8.00;;;;;6.65;66.98;101170.38;5039486;28;45321;-50
2022/01/07 09:28:53;;;;;;;;;13.50;10.50;;;;;6.66;66.75;101183.44;5039460;28;45359;-50
2022/01/07 09:31:18;;;;;;;;;7.25;5.00;;;;;6.70;66.92;101186.94;5021865;28;45321;-48
2022/01/07 09:33:44;;;;;;;;;9.25;8.00;;;;;6.67;66.87;101185.19;5039295;28;45316;-49
2022/01/07 09:36:09;;;;;;;;;10.00;9.00;;;;;6.71;66.79;101198.28;5039280;28;46121;-52
2022/01/07 09:38:35;;;;;;;;;10.00;8.75;;;;;6.73;66.96;101201.75;5039423;28;45312;-50
2022/01/07 09:41:00;;;;;;;;;7.25;7.00;;;;;6.75;66.88;101206.13;5039317;28;45230;-49
2022/01/07 09:43:26;;;;;;;;;6.25;4.50;;;;;6.75;66.62;101213.97;5039373;28;45172;-50
2022/01/07 09:45:51;;;;;;;;;4.25;4.25;;;;;6.80;66.79;101227.97;5021364;28;46016;-48
2022/01/07 09:48:17;;;;;;;;;5.25;5.00;;;;;6.80;66.95;101232.31;5039304;28;45301;-52
2022/01/07 09:50:42;;;;;;;;;7.25;6.25;;;;;6.81;66.74;101227.09;5039088;28;45398;-53
2022/01/07 09:53:12;;;;;;;;;8.00;8.00;;;;;6.82;67.09;101217.53;5021312;28;45195;-50
2022/01/07 09:55:39;;;;;;;;;6.75;4.25;;;;;6.85;66.92;101217.56;5038840;28;45412;-53
2022/01/07 09:58:05;;;;;;;;;9.25;7.25;;;;;6.83;66.91;101219.31;5039124;28;45424;-50
2022/01/07 10:00:42;;;;;;;;;7.00;7.00;;;;;6.82;67.02;101221.03;5037960;28;45330;-53
2022/01/07 10:03:10;;;;;;;;;9.75;8.25;;;;;6.81;67.04;101198.34;5039167;28;45505;-50
2022/01/07 10:05:44;;;;;;;;;9.25;8.75;;;;;6.82;66.93;101194.03;5004051;28;45447;-47
2022/01/07 10:08:29;;;;;;;;;9.25;8.75;;;;;6.82;67.19;101199.25;5039026;28;45313;-53
2022/01/07 10:11:19;;;;;;;;;9.75;9.75;;;;;6.85;67.21;101206.25;5058980;28;45242;-52
2022/01/07 10:14:08;;;;;;;;;14.25;11.00;;;;;6.89;67.01;101202.78;5040713;28;45571;-48
2022/01/07 10:16:50;;;;;;;;;12.25;9.50;;;;;6.92;67.27;101200.22;5045623;28;45353;-50
2022/01/07 10:19:35;;;;;;;;;14.00;11.00;;;;;6.96;67.25;101195.00;5043194;28;45199;-52
2022/01/07 10:22:12;;;;;;;;;9.25;8.75;;;;;6.93;67.30;101179.31;5050401;28;45335;-53
2022/01/07 10:25:00;;;;;;;;;15.00;11.00;;;;;7.06;67.66;101179.41;5011092;28;45276;-49
2022/01/07 10:27:37;;;;;;;;;13.25;11.00;;;;;7.12;67.40;101182.94;5043994;28;46148;-53
2022/01/07 10:30:10;;;;;;;;;15.25;12.00;;;;;7.19;67.45;101169.91;5062047;28;45347;-50
2022/01/07 10:32:37;;;;;;;;;11.25;9.25;;;;;7.25;67.72;101164.72;5062319;28;45282;-53
2022/01/07 10:35:04;;;;;;;;;14.00;14.00;;;;;7.29;67.70;101171.72;5061979;28;45488;-52
2022/01/07 10:37:30;;;;;;;;;12.75;11.00;;;;;7.42;67.34;101178.78;5044111;28;47351;-51
2022/01/07 10:39:55;;;;;;;;;10.00;8.25;;;;;7.52;67.52;101173.59;5043944;28;45447;-52
2022/01/07 10:42:25;;;;;;;;;9.00;7.25;;;;;7.56;67.56;101164.88;5047197;28;45215;-54
2022/01/07 10:45:03;;;;;;;;;13.75;11.50;;;;;7.68;67.58;101153.63;5041924;28;45408;-49
2022/01/07 10:47:28;;;;;;;;;12.50;10.00;;;;;7.76;67.46;101147.56;5023816;28;46508;-49
2022/01/07 10:50:27;;;;;;;;;11.75;11.00;;;;;7.88;67.64;101151.09;5041518;28;45302;-50
2022/01/07 10:53:14;;;;;;;;;8.50;6.50;;;;;7.99;67.79;101138.91;5008742;28;45254;-51
2022/01/07 10:55:40;;;;;;;;;10.25;9.25;;;;;8.05;67.35;101128.44;5041640;28;45236;-56
2022/01/07 10:58:05;;;;;;;;;11.50;8.75;;;;;8.18;67.38;101131.09;5041574;28;46231;-53
2022/01/07 11:00:36;;;;;;;;;5.75;5.75;;;;;8.29;67.71;101138.09;5041625;28;45304;-53
2022/01/07 11:03:07;;;;;;;;;12.00;9.25;;;;;8.40;67.54;101137.22;5023771;28;45174;-53
2022/01/07 11:05:32;;;;;;;;;11.50;9.50;;;;;8.51;67.54;101132.03;5023159;28;45508;-49
2022/01/07 11:08:01;;;;;;;;;10.25;7.50;;;;;8.62;67.63;101143.41;5041278;28;46132;-52
2022/01/07 11:10:29;;;;;;;;;7.00;6.00;;;;;8.70;67.78;101159.13;5042144;28;45368;-50
2022/01/07 11:12:57;;;;;;;;;9.25;6.25;;;;;8.75;67.68;101141.66;5061809;28;45265;-51
2022/01/07 11:15:22;;;;;;;;;11.25;8.25;;;;;8.84;67.48;101153.88;5061395;28;45502;-49
2022/01/07 11:17:48;;;;;;;;;7.00;7.00;;;;;8.93;67.56;101151.25;5061568;28;46283;-50
2022/01/07 11:20:16;;;;;;;;;6.75;6.00;;;;;9.00;67.39;101152.97;5055350;28;45241;-52
2022/01/07 11:22:47;;;;;;;;;8.25;6.00;;;;;9.03;67.14;101139.88;5041485;28;45366;-54
2022/01/07 11:25:13;;;;;;;;;4.00;4.00;;;;;9.05;67.26;101143.38;5023199;28;45486;-50
2022/01/07 11:27:48;;;;;;;;;5.00;5.00;;;;;9.12;67.07;101149.50;5041113;28;47130;-52
2022/01/07 11:30:17;;;;;;;;;7.00;7.00;;;;;9.13;66.92;101158.22;5049051;28;45335;-51
2022/01/07 11:32:45;;;;;;;;;5.50;4.00;;;;;9.17;67.01;101136.34;5061383;28;45298;-54
2022/01/07 11:35:19;;;;;;;;;6.25;4.25;;;;;9.17;66.93;101128.47;5061241;28;45693;-50
2022/01/07 11:37:59;;;;;;;;;3.75;2.75;;;;;9.13;66.74;101130.22;5060951;28;46484;-52